createdAt,value
2018-05-07T00:01:15.774Z,102220.00
2018-05-07T00:03:44.043Z,102212.30
2018-05-07T00:06:12.369Z,102215.59
2018-05-07T00:08:40.699Z,102210.84
2018-05-07T00:11:08.992Z,102203.69
2018-05-07T00:13:37.332Z,102208.05
2018-05-07T00:16:06.223Z,102203.92
2018-05-07T00:18:34.514Z,102196.33
2018-05-07T00:21:02.835Z,102197.25
2018-05-07T00:23:31.566Z,102197.41
2018-05-07T00:25:59.875Z,102198.80
2018-05-07T00:28:28.195Z,102202.78
2018-05-07T00:30:57.538Z,102185.84
2018-05-07T00:33:25.826Z,102191.86
2018-05-07T00:35:54.178Z,102193.64
2018-05-07T00:38:22.784Z,102185.72
2018-05-07T00:40:51.115Z,102187.30
2018-05-07T00:43:19.442Z,102179.13
2018-05-07T00:45:48.435Z,102181.81
2018-05-07T00:48:16.783Z,102186.33
2018-05-07T00:50:45.084Z,102183.11
2018-05-07T00:53:13.441Z,102192.39
2018-05-07T00:55:41.757Z,102194.51
2018-05-07T00:58:10.055Z,102197.84
2018-05-07T01:00:38.685Z,102194.72
2018-05-07T01:03:07.027Z,102194.30
2018-05-07T01:05:35.356Z,102191.61
2018-05-07T01:08:04.478Z,102195.42
2018-05-07T01:10:32.832Z,102193.59
2018-05-07T01:13:01.129Z,102193.59
2018-05-07T01:15:29.474Z,102190.26
2018-05-07T01:17:57.786Z,102191.60
2018-05-07T01:20:26.124Z,102193.43
2018-05-07T01:22:55.119Z,102194.23
2018-05-07T01:25:23.431Z,102187.98
2018-05-07T01:27:51.739Z,102195.27
2018-05-07T01:30:20.185Z,102199.40
2018-05-07T01:32:48.446Z,102191.81
2018-05-07T01:35:16.793Z,102191.28
2018-05-07T01:37:45.417Z,102196.37
2018-05-07T01:40:13.804Z,102195.27
2018-05-07T01:42:42.127Z,102197.55
2018-05-07T01:45:11.024Z,102201.16
2018-05-07T01:47:39.341Z,102194.92
2018-05-07T01:50:07.661Z,102199.44
2018-05-07T01:52:36.017Z,102200.09
2018-05-07T01:55:04.346Z,102199.07
2018-05-07T01:57:32.684Z,102205.14
2018-05-07T02:00:01.062Z,102203.27
2018-05-07T02:02:29.397Z,102204.00
2018-05-07T02:04:57.693Z,102200.45
2018-05-07T02:07:26.095Z,102201.31
2018-05-07T02:09:54.414Z,102201.00
2018-05-07T02:12:23.702Z,102201.10
2018-05-07T02:14:52.797Z,102199.37
2018-05-07T02:17:21.166Z,102204.38
2018-05-07T02:19:49.529Z,102197.70
2018-05-07T02:22:19.032Z,102197.38
2018-05-07T02:24:47.507Z,102197.86
2018-05-07T02:27:15.835Z,102201.13
2018-05-07T02:29:44.195Z,102199.73
2018-05-07T02:32:12.550Z,102199.05
2018-05-07T02:34:40.887Z,102193.34
2018-05-07T02:37:10.066Z,102193.11
2018-05-07T02:39:38.384Z,102191.06
2018-05-07T02:42:06.735Z,102189.35
2018-05-07T02:44:35.137Z,102191.98
2018-05-07T02:47:03.438Z,102194.39
2018-05-07T02:49:31.739Z,102192.19
2018-05-07T02:52:00.923Z,102194.73
2018-05-07T02:54:29.308Z,102188.71
2018-05-07T02:56:57.657Z,102189.58
2018-05-07T02:59:26.206Z,102187.19
2018-05-07T03:01:54.522Z,102190.30
2018-05-07T03:04:22.890Z,102183.38
2018-05-07T03:06:51.243Z,102184.34
2018-05-07T03:09:19.591Z,102178.16
2018-05-07T03:11:48.056Z,102183.16
2018-05-07T03:14:17.412Z,102177.41
2018-05-07T03:16:45.733Z,102176.08
2018-05-07T03:19:14.082Z,102177.04
2018-05-07T03:21:42.426Z,102181.66
2018-05-07T03:24:10.755Z,102176.68
2018-05-07T03:26:39.160Z,102189.52
2018-05-07T03:29:07.495Z,102176.44
2018-05-07T03:31:35.858Z,102179.10
2018-05-07T03:34:04.607Z,102184.09
2018-05-07T03:36:32.968Z,102179.69
2018-05-07T03:39:01.304Z,102178.39
2018-05-07T03:41:29.606Z,102181.94
2018-05-07T03:43:58.086Z,102179.20
2018-05-07T03:46:26.382Z,102179.20
2018-05-07T03:48:54.721Z,102169.75
2018-05-07T03:51:23.434Z,102180.30
2018-05-07T03:53:51.756Z,102171.71
2018-05-07T03:56:20.085Z,102170.41
2018-05-07T03:58:49.079Z,102169.78
2018-05-07T04:01:17.413Z,102173.53
2018-05-07T04:03:45.776Z,102185.34
2018-05-07T04:06:15.582Z,102182.91
2018-05-07T04:08:43.927Z,102178.67
2018-05-07T04:11:12.611Z,102182.80
2018-05-07T04:13:41.299Z,102179.05
2018-05-07T04:16:09.616Z,102178.95
2018-05-07T04:18:49.852Z,102177.08
2018-05-07T04:21:18.213Z,102173.00
2018-05-07T04:23:58.261Z,102178.11
2018-05-07T04:26:26.597Z,102171.52
2018-05-07T04:28:54.941Z,102180.40
2018-05-07T04:31:23.804Z,102169.05
2018-05-07T04:33:52.181Z,102168.63
2018-05-07T04:36:20.490Z,102171.44
2018-05-07T04:38:48.897Z,102167.94
2018-05-07T04:41:17.245Z,102167.75
2018-05-07T04:43:45.612Z,102161.45
2018-05-07T04:46:16.022Z,102169.30
2018-05-07T04:48:44.358Z,102164.89
2018-05-07T04:51:12.650Z,102165.93
2018-05-07T04:53:41.832Z,102170.45
2018-05-07T04:56:10.145Z,102174.53
2018-05-07T04:58:38.449Z,102169.73
2018-05-07T05:01:06.792Z,102173.26
2018-05-07T05:03:35.107Z,102175.44
2018-05-07T05:06:03.449Z,102175.84
2018-05-07T05:08:31.794Z,102172.13
2018-05-07T05:11:00.128Z,102169.97
2018-05-07T05:13:28.464Z,102175.03
2018-05-07T05:15:57.230Z,102169.33
2018-05-07T05:18:25.534Z,102163.98
2018-05-07T05:20:53.891Z,102169.05
2018-05-07T05:23:22.933Z,102165.54
2018-05-07T05:25:51.261Z,102165.54
2018-05-07T05:28:19.641Z,102164.50
2018-05-07T05:30:48.385Z,102162.64
2018-05-07T05:33:16.866Z,102152.87
2018-05-07T05:35:45.358Z,102159.44
2018-05-07T05:38:13.725Z,102159.56
2018-05-07T05:40:42.059Z,102149.77
2018-05-07T05:43:10.399Z,102151.29
2018-05-07T05:45:38.834Z,102156.55
2018-05-07T05:48:07.159Z,102151.61
2018-05-07T05:50:35.473Z,102151.45
2018-05-07T05:53:04.705Z,102149.70
2018-05-07T05:55:33.023Z,102153.73
2018-05-07T05:58:01.324Z,102162.25
2018-05-07T06:00:30.459Z,102165.32
2018-05-07T06:02:58.772Z,102159.98
2018-05-07T06:05:27.115Z,102169.27
2018-05-07T06:07:55.478Z,102165.84
2018-05-07T06:10:23.854Z,102168.73
2018-05-07T06:12:52.199Z,102163.61
2018-05-07T06:15:21.196Z,102162.45
2018-05-07T06:17:49.513Z,102157.97
2018-05-07T06:20:19.524Z,102153.44
2018-05-07T06:22:48.164Z,102162.91
2018-05-07T06:25:18.716Z,102158.47
2018-05-07T06:27:47.574Z,102162.06
2018-05-07T06:30:16.634Z,102159.67
2018-05-07T06:32:46.397Z,102150.62
2018-05-07T06:35:14.860Z,102151.84
2018-05-07T06:37:43.739Z,102148.17
2018-05-07T06:40:12.110Z,102145.48
2018-05-07T06:42:40.429Z,102147.34
2018-05-07T06:45:08.984Z,102149.75
2018-05-07T06:47:37.301Z,102151.52
2018-05-07T06:50:05.643Z,102156.92
2018-05-07T06:52:34.530Z,102157.31
2018-05-07T06:55:02.831Z,102157.61
2018-05-07T06:57:31.211Z,102160.91
2018-05-07T06:59:59.666Z,102160.30
2018-05-07T07:02:28.093Z,102164.20
2018-05-07T07:04:56.347Z,102165.83
2018-05-07T07:07:24.793Z,102162.61
2018-05-07T07:09:53.182Z,102155.70
2018-05-07T07:12:21.660Z,102164.12
2018-05-07T07:14:50.968Z,102162.64
2018-05-07T07:17:19.344Z,102162.14
2018-05-07T07:19:47.803Z,102157.64
2018-05-07T07:22:16.721Z,102166.92
2018-05-07T07:24:45.336Z,102158.29
2018-05-07T07:27:13.745Z,102155.45
2018-05-07T07:29:42.147Z,102152.89
2018-05-07T07:32:10.457Z,102151.73
2018-05-07T07:34:38.800Z,102150.04
2018-05-07T07:37:07.676Z,102150.59
2018-05-07T07:39:36.043Z,102150.86
2018-05-07T07:42:04.369Z,102150.58
2018-05-07T07:44:32.741Z,102156.05
2018-05-07T07:47:01.097Z,102157.28
2018-05-07T07:49:30.353Z,102157.51
2018-05-07T07:51:58.704Z,102164.86
2018-05-07T07:54:27.061Z,102171.76
2018-05-07T07:56:55.430Z,102167.91
2018-05-07T07:59:23.901Z,102170.52
2018-05-07T08:01:52.226Z,102180.15
2018-05-07T08:04:21.929Z,102179.25
2018-05-07T08:06:51.022Z,102179.34
2018-05-07T08:09:19.373Z,102174.97
2018-05-07T08:11:47.708Z,102177.78
2018-05-07T08:14:16.952Z,102171.55
2018-05-07T08:16:45.918Z,102170.10
2018-05-07T08:19:14.254Z,102169.53
2018-05-07T08:21:42.623Z,102168.18
2018-05-07T08:24:10.968Z,102169.73
2018-05-07T08:26:39.289Z,102171.04
2018-05-07T08:29:08.485Z,102164.05
2018-05-07T08:31:36.830Z,102170.98
2018-05-07T08:34:05.145Z,102167.47
2018-05-07T08:36:33.470Z,102171.67
2018-05-07T08:39:01.759Z,102176.26
2018-05-07T08:41:30.066Z,102176.30
2018-05-07T08:43:58.455Z,102169.36
2018-05-07T08:46:26.762Z,102167.51
2018-05-07T08:48:55.097Z,102166.98
2018-05-07T08:51:23.755Z,102167.70
2018-05-07T08:53:52.178Z,102168.73
2018-05-07T08:56:20.585Z,102159.73
2018-05-07T08:58:49.374Z,102159.06
2018-05-07T09:01:17.752Z,102153.38
2018-05-07T09:03:46.102Z,102153.25
2018-05-07T09:06:14.494Z,102157.27
2018-05-07T09:08:42.807Z,102148.92
2018-05-07T09:11:11.131Z,102153.98
2018-05-07T09:13:40.207Z,102141.00
2018-05-07T09:16:08.506Z,102136.02
2018-05-07T09:18:36.836Z,102140.56
2018-05-07T09:21:05.918Z,102141.91
2018-05-07T09:23:34.292Z,102140.17
2018-05-07T09:26:02.632Z,102133.07
2018-05-07T09:28:31.582Z,102129.49
2018-05-07T09:30:59.996Z,102128.48
2018-05-07T09:33:28.318Z,102130.23
2018-05-07T09:35:57.392Z,102127.52
2018-05-07T09:38:25.736Z,102116.92
2018-05-07T09:40:54.092Z,102120.83
2018-05-07T09:43:22.569Z,102121.58
2018-05-07T09:45:50.950Z,102114.98
2018-05-07T09:48:19.372Z,102114.22
2018-05-07T09:50:47.708Z,102112.63
2018-05-07T09:53:16.062Z,102106.22
2018-05-07T09:55:44.465Z,102102.62
2018-05-07T09:58:13.987Z,102100.30
2018-05-07T10:00:42.307Z,102100.53
2018-05-07T10:03:10.622Z,102094.58
2018-05-07T10:05:39.137Z,102095.63
2018-05-07T10:08:07.478Z,102095.45
2018-05-07T10:10:35.813Z,102090.73
2018-05-07T10:13:04.337Z,102084.22
2018-05-07T10:15:32.648Z,102080.50
2018-05-07T10:18:00.974Z,102073.09
2018-05-07T10:20:29.494Z,102071.00
2018-05-07T10:22:57.886Z,102071.16
2018-05-07T10:25:26.207Z,102065.83
2018-05-07T10:27:54.598Z,102074.34
2018-05-07T10:30:22.996Z,102079.68
2018-05-07T10:32:51.352Z,102077.55
2018-05-07T10:35:20.503Z,102071.64
2018-05-07T10:37:48.880Z,102073.72
2018-05-07T10:40:17.223Z,102069.97
2018-05-07T10:42:46.359Z,102065.73
2018-05-07T10:45:14.635Z,102070.74
2018-05-07T10:47:42.996Z,102071.74
2018-05-07T10:50:11.364Z,102072.44
2018-05-07T10:52:39.703Z,102072.00
2018-05-07T10:55:08.036Z,102064.52
2018-05-07T10:57:36.802Z,102065.47
2018-05-07T11:00:05.143Z,102065.59
2018-05-07T11:02:33.479Z,102062.64
2018-05-07T11:05:03.393Z,102053.66
2018-05-07T11:07:31.740Z,102053.42
2018-05-07T11:10:00.045Z,102054.58
2018-05-07T11:12:28.403Z,102060.02
2018-05-07T11:14:56.781Z,102048.79
2018-05-07T11:17:25.229Z,102046.11
2018-05-07T11:19:53.749Z,102041.90
2018-05-07T11:22:22.125Z,102038.50
2018-05-07T11:24:50.473Z,102035.59
2018-05-07T11:27:19.161Z,102024.36
2018-05-07T11:29:47.487Z,102028.39
2018-05-07T11:32:15.921Z,102029.20
2018-05-07T11:34:44.435Z,102026.63
2018-05-07T11:37:12.739Z,102024.19
2018-05-07T11:39:41.078Z,102015.19
2018-05-07T11:42:09.663Z,102014.16
2018-05-07T11:44:37.989Z,102012.17
2018-05-07T11:47:06.310Z,102012.46
2018-05-07T11:49:34.676Z,102011.86
2018-05-07T11:52:02.967Z,102016.44
2018-05-07T11:54:31.301Z,102015.84
2018-05-07T11:56:59.703Z,102014.11
2018-05-07T11:59:28.000Z,102007.25
2018-05-07T12:01:56.326Z,102004.06
2018-05-07T12:04:25.426Z,102009.77
2018-05-07T12:06:53.807Z,102002.19
2018-05-07T12:09:22.219Z,102003.73
2018-05-07T12:11:53.229Z,102006.20
2018-05-07T12:14:21.710Z,102008.03
2018-05-07T12:16:50.063Z,101999.14
2018-05-07T12:19:19.350Z,101993.66
2018-05-07T12:21:47.924Z,101989.73
2018-05-07T12:24:16.340Z,101991.58
2018-05-07T12:26:44.817Z,101992.59
2018-05-07T12:29:13.142Z,101990.80
2018-05-07T12:31:41.603Z,101984.30
2018-05-07T12:34:09.904Z,101977.88
2018-05-07T12:36:38.205Z,101971.68
2018-05-07T12:39:06.525Z,101970.63
2018-05-07T12:41:34.877Z,101968.37
2018-05-07T12:44:03.312Z,101960.00
2018-05-07T12:46:31.759Z,101953.84
2018-05-07T12:49:01.737Z,101948.96
2018-05-07T12:51:30.070Z,101957.97
2018-05-07T12:53:58.492Z,101954.69
2018-05-07T12:56:27.077Z,101957.00
2018-05-07T12:58:55.540Z,101950.23
2018-05-07T13:01:23.919Z,101950.34
2018-05-07T13:03:52.341Z,101944.17
2018-05-07T13:06:21.011Z,101930.52
2018-05-07T13:08:49.422Z,101927.95
2018-05-07T13:11:18.617Z,101926.75
2018-05-07T13:13:47.061Z,101929.64
2018-05-07T13:16:16.302Z,101932.17
2018-05-07T13:18:44.722Z,101933.78
2018-05-07T13:21:13.045Z,101927.00
2018-05-07T13:23:41.377Z,101930.97
2018-05-07T13:26:10.177Z,101928.55
2018-05-07T13:28:38.485Z,101931.34
2018-05-07T13:31:06.814Z,101926.69
2018-05-07T13:33:35.627Z,101919.16
2018-05-07T13:36:03.937Z,101918.55
2018-05-07T13:38:32.265Z,101921.07
2018-05-07T13:41:00.659Z,101909.07
2018-05-07T13:43:28.998Z,101907.03
2018-05-07T13:45:57.340Z,101912.25
2018-05-07T13:48:25.849Z,101913.80
2018-05-07T13:50:54.305Z,101901.48
2018-05-07T13:53:22.682Z,101894.76
2018-05-07T13:55:51.164Z,101903.75
2018-05-07T13:58:19.528Z,101905.47
2018-05-07T14:00:48.118Z,101898.26
2018-05-07T14:03:16.585Z,101892.91
2018-05-07T14:05:44.986Z,101894.53
2018-05-07T14:08:13.300Z,101893.45
2018-05-07T14:10:42.414Z,101889.34
2018-05-07T14:13:10.742Z,101888.23
2018-05-07T14:15:39.081Z,101880.55
2018-05-07T14:18:08.500Z,101881.91
2018-05-07T14:20:36.813Z,101876.38
2018-05-07T14:23:05.145Z,101873.72
2018-05-07T14:25:33.539Z,101869.43
2018-05-07T14:28:01.847Z,101867.53
2018-05-07T14:30:30.187Z,101872.77
2018-05-07T14:33:00.021Z,101873.13
2018-05-07T14:35:28.349Z,101871.22
2018-05-07T14:37:56.752Z,101864.31
2018-05-07T14:40:25.472Z,101867.48
2018-05-07T14:42:53.891Z,101870.75
2018-05-07T14:45:22.258Z,101862.30
2018-05-07T14:47:50.753Z,101865.97
2018-05-07T14:50:19.130Z,101866.86
2018-05-07T14:52:47.485Z,101862.14
2018-05-07T14:55:15.969Z,101855.61
2018-05-07T14:57:44.314Z,101857.13
2018-05-07T15:00:12.623Z,101847.52
2018-05-07T15:02:40.972Z,101847.96
2018-05-07T15:05:09.322Z,101844.95
2018-05-07T15:07:37.628Z,101844.77
2018-05-07T15:10:05.998Z,101843.55
2018-05-07T15:12:34.369Z,101838.07
2018-05-07T15:15:02.779Z,101836.81
2018-05-07T15:17:31.863Z,101831.61
2018-05-07T15:20:00.217Z,101828.27
2018-05-07T15:22:28.595Z,101825.97
2018-05-07T15:24:57.102Z,101827.20
2018-05-07T15:27:25.562Z,101816.05
2018-05-07T15:29:54.043Z,101826.31
2018-05-07T15:32:22.419Z,101818.17
2018-05-07T15:34:50.779Z,101814.74
2018-05-07T15:37:19.245Z,101819.16
2018-05-07T15:39:48.640Z,101819.03
2018-05-07T15:42:17.087Z,101817.34
2018-05-07T15:44:45.454Z,101812.04
2018-05-07T15:47:14.380Z,101823.02
2018-05-07T15:49:42.720Z,101820.45
2018-05-07T15:52:11.073Z,101818.66
2018-05-07T15:54:39.401Z,101817.36
2018-05-07T15:57:07.750Z,101817.98
2018-05-07T15:59:36.054Z,101817.53
2018-05-07T16:02:04.408Z,101809.13
2018-05-07T16:04:32.708Z,101813.67
2018-05-07T16:07:01.030Z,101808.67
2018-05-07T16:09:29.671Z,101802.95
2018-05-07T16:11:59.098Z,101804.64
2018-05-07T16:14:27.554Z,101809.36
2018-05-07T16:16:56.019Z,101802.69
2018-05-07T16:19:24.430Z,101809.15
2018-05-07T16:21:52.713Z,101798.06
2018-05-07T16:24:21.166Z,101802.14
2018-05-07T16:26:49.549Z,101800.77
2018-05-07T16:29:18.180Z,101790.92
2018-05-07T16:31:46.589Z,101795.56
2018-05-07T16:34:15.377Z,101791.00
2018-05-07T16:36:44.746Z,101787.33
2018-05-07T16:41:38.526Z,101786.95
2018-05-07T16:44:06.926Z,101786.87
2018-05-07T16:46:35.283Z,101786.06
2018-05-07T16:49:04.261Z,101777.34
2018-05-07T16:51:32.495Z,101782.61
2018-05-07T16:54:00.809Z,101776.30
2018-05-07T16:56:29.203Z,101779.79
2018-05-07T16:58:57.517Z,101772.23
2018-05-07T17:01:32.002Z,101772.72
2018-05-07T17:04:00.302Z,101777.27
2018-05-07T17:06:28.636Z,101774.14
2018-05-07T17:08:58.757Z,101770.97
2018-05-07T17:11:27.094Z,101769.13
2018-05-07T17:13:55.471Z,101772.96
2018-05-07T17:16:24.125Z,101767.44
2018-05-07T17:18:52.471Z,101765.31
2018-05-07T17:21:20.814Z,101768.86
2018-05-07T17:23:49.294Z,101755.15
2018-05-07T17:26:17.725Z,101760.56
2018-05-07T17:28:46.054Z,101759.53
2018-05-07T17:31:14.529Z,101757.05
2018-05-07T17:33:42.970Z,101760.38
2018-05-07T17:36:11.186Z,101756.86
2018-05-07T17:38:40.483Z,101760.78
2018-05-07T17:41:08.829Z,101756.20
2018-05-07T17:43:37.138Z,101756.30
2018-05-07T17:46:17.493Z,101760.92
2018-05-07T17:48:54.645Z,101755.98
2018-05-07T17:51:23.461Z,101754.54
2018-05-07T17:53:51.933Z,101752.92
2018-05-07T17:56:20.263Z,101756.80
2018-05-07T17:58:48.820Z,101760.72
2018-05-07T18:01:17.182Z,101759.28
2018-05-07T18:03:45.555Z,101760.36
2018-05-07T18:06:13.955Z,101755.36
2018-05-07T18:08:43.415Z,101752.59
2018-05-07T18:11:11.732Z,101745.73
2018-05-07T18:13:40.781Z,101746.62
2018-05-07T18:16:09.122Z,101745.87
2018-05-07T18:18:37.443Z,101742.02
2018-05-07T18:21:06.520Z,101745.61
2018-05-07T18:23:34.837Z,101742.03
2018-05-07T18:26:03.172Z,101738.46
2018-05-07T18:28:31.494Z,101746.93
2018-05-07T18:31:00.405Z,101743.13
2018-05-07T18:33:29.700Z,101745.02
2018-05-07T18:35:58.048Z,101740.71
2018-05-07T18:38:28.335Z,101740.78
2018-05-07T18:40:56.772Z,101746.20
2018-05-07T18:43:26.262Z,101741.61
2018-05-07T18:45:54.561Z,101738.26
2018-05-07T18:48:22.927Z,101739.08
2018-05-07T18:50:51.324Z,101737.71
2018-05-07T18:53:19.752Z,101743.86
2018-05-07T18:55:48.070Z,101739.16
2018-05-07T18:58:16.525Z,101741.79
2018-05-07T19:00:44.962Z,101744.88
2018-05-07T19:03:13.566Z,101750.13
2018-05-07T19:05:41.971Z,101748.28
2018-05-07T19:08:10.254Z,101754.26
2018-05-07T19:10:38.617Z,101751.67
2018-05-07T19:13:07.133Z,101760.84
2018-05-07T19:15:35.473Z,101756.92
2018-05-07T19:18:03.826Z,101755.69
2018-05-07T19:20:33.682Z,101761.72
2018-05-07T19:23:02.999Z,101757.04
2018-05-07T19:25:31.742Z,101752.84
2018-05-07T19:28:00.087Z,101756.80
2018-05-07T19:30:28.409Z,101761.67
2018-05-07T19:32:56.760Z,101752.69
2018-05-07T19:35:25.194Z,101760.36
2018-05-07T19:37:53.609Z,101756.73
2018-05-07T19:40:22.034Z,101747.97
2018-05-07T19:42:51.335Z,101745.67
2018-05-07T19:45:19.742Z,101746.55
2018-05-07T19:47:48.315Z,101756.59
2018-05-07T19:50:16.671Z,101750.55
2018-05-07T19:52:45.052Z,101749.05
2018-05-07T19:55:13.426Z,101750.91
2018-05-07T19:57:41.866Z,101753.59
2018-05-07T20:00:10.178Z,101750.61
2018-05-07T20:02:38.482Z,101753.12
2018-05-07T20:05:07.352Z,101754.09
2018-05-07T20:07:35.662Z,101755.44
2018-05-07T20:10:04.245Z,101759.42
2018-05-07T20:12:32.806Z,101751.17
2018-05-07T20:15:01.031Z,101756.84
2018-05-07T20:17:29.382Z,101748.17
2018-05-07T20:19:57.961Z,101748.20
2018-05-07T20:22:26.455Z,101744.45
2018-05-07T20:24:54.812Z,101744.56
2018-05-07T20:27:23.580Z,101745.70
2018-05-07T20:29:51.972Z,101736.30
2018-05-07T20:32:20.521Z,101733.17
2018-05-07T20:34:49.849Z,101730.05
2018-05-07T20:37:18.352Z,101730.33
2018-05-07T20:39:46.715Z,101723.75
2018-05-07T20:42:15.255Z,101733.41
2018-05-07T20:44:43.681Z,101729.38
2018-05-07T20:47:11.963Z,101723.25
2018-05-07T20:49:41.483Z,101718.52
2018-05-07T20:52:09.823Z,101718.95
2018-05-07T20:54:38.149Z,101720.99
2018-05-07T20:57:06.469Z,101720.73
2018-05-07T20:59:34.805Z,101721.27
2018-05-07T21:02:03.122Z,101717.34
2018-05-07T21:04:31.564Z,101714.94
2018-05-07T21:06:59.896Z,101718.36
2018-05-07T21:09:28.244Z,101714.72
2018-05-07T21:11:56.679Z,101706.25
2018-05-07T21:14:24.997Z,101703.45
2018-05-07T21:16:53.363Z,101704.05
2018-05-07T21:19:21.787Z,101702.07
2018-05-07T21:21:50.132Z,101704.67
2018-05-07T21:24:19.331Z,101705.75
2018-05-07T21:26:47.736Z,101709.83
2018-05-07T21:29:16.101Z,101704.11
2018-05-07T21:31:44.434Z,101702.72
2018-05-07T21:34:13.445Z,101705.84
2018-05-07T21:36:41.777Z,101701.02
2018-05-07T21:39:10.108Z,101712.22
2018-05-07T21:41:38.439Z,101699.72
2018-05-07T21:44:06.740Z,101702.01
2018-05-07T21:46:36.506Z,101703.72
2018-05-07T21:49:05.052Z,101701.89
2018-05-07T21:51:33.430Z,101709.31
2018-05-07T21:54:01.702Z,101719.17
2018-05-07T21:56:30.624Z,101704.48
2018-05-07T21:58:58.965Z,101710.24
2018-05-07T22:01:27.315Z,101712.32
2018-05-07T22:03:56.434Z,101704.39
2018-05-07T22:06:24.734Z,101706.75
2018-05-07T22:08:53.296Z,101709.86
2018-05-07T22:11:22.127Z,101706.88
2018-05-07T22:13:50.450Z,101710.36
2018-05-07T22:16:18.918Z,101708.53
2018-05-07T22:18:47.311Z,101710.43
2018-05-07T22:21:15.685Z,101707.27
2018-05-07T22:23:44.807Z,101707.99
2018-05-07T22:26:13.243Z,101701.17
2018-05-07T22:28:41.470Z,101704.50
2018-05-07T22:31:09.814Z,101697.25
2018-05-07T22:33:38.725Z,101701.80
2018-05-07T22:36:07.042Z,101695.86
2018-05-07T22:38:35.427Z,101694.98
2018-05-07T22:41:04.010Z,101700.26
2018-05-07T22:43:32.332Z,101693.22
2018-05-07T22:46:00.631Z,101698.34
2018-05-07T22:48:29.007Z,101692.13
2018-05-07T22:50:57.308Z,101694.92
2018-05-07T22:53:25.688Z,101690.72
2018-05-07T22:55:54.042Z,101688.19
2018-05-07T22:58:22.393Z,101686.61
2018-05-07T23:00:50.751Z,101683.59
2018-05-07T23:03:19.277Z,101691.81
2018-05-07T23:05:47.631Z,101675.03
2018-05-07T23:08:16.017Z,101674.78
2018-05-07T23:10:44.930Z,101683.23
2018-05-07T23:13:13.224Z,101676.37
2018-05-07T23:15:41.559Z,101671.52
2018-05-07T23:18:09.887Z,101679.69
2018-05-07T23:20:38.255Z,101673.69
2018-05-07T23:23:06.575Z,101670.36
2018-05-07T23:25:35.177Z,101665.16
2018-05-07T23:28:03.474Z,101664.06
2018-05-07T23:30:31.784Z,101661.42
2018-05-07T23:33:00.266Z,101664.74
2018-05-07T23:35:28.584Z,101656.83
2018-05-07T23:37:56.952Z,101664.06
2018-05-07T23:40:25.356Z,101662.57
2018-05-07T23:42:53.653Z,101665.33
2018-05-07T23:45:23.849Z,101661.55
2018-05-07T23:47:52.636Z,101659.16
2018-05-07T23:50:20.965Z,101662.16
2018-05-07T23:52:49.317Z,101659.83
2018-05-07T23:55:18.092Z,101659.23
2018-05-07T23:57:47.598Z,101661.72
